Time;durP1;ratioP1;P1;durP2;ratioP2;P2;SDS_P1;SDS_P2;PMS_P1;PMS_P2;Temp;Humidity;BMP_temperature;BMP_pressure;BME280_temperature;BME280_humidity;BME280_pressure;Samples;Min_cycle;Max_cycle;Signal;HPM_P1;HPM_P2
2021/12/18 00:01:30;;;;;;;2.88;0.85;;;7.10;99.90;;;;;;5046031;28;20080;-83
2021/12/18 00:03:57;;;;;;;3.10;0.98;;;7.10;99.90;;;;;;5029288;28;20120;-83
2021/12/18 00:06:23;;;;;;;1.10;0.45;;;9.00;99.90;;;;;;5044693;28;20460;-84
2021/12/18 00:08:49;;;;;;;3.33;0.90;;;7.10;99.90;;;;;;5045525;28;20131;-83
2021/12/18 00:11:15;;;;;;;1.10;0.47;;;9.00;99.90;;;;;;5044834;28;20094;-83
2021/12/18 00:13:40;;;;;;;3.00;0.70;;;7.80;99.90;;;;;;5044844;28;20056;-82
2021/12/18 00:16:07;;;;;;;2.78;0.95;;;7.10;99.90;;;;;;5047361;28;20116;-83
2021/12/18 00:18:34;;;;;;;5.32;1.00;;;7.10;99.90;;;;;;5045064;28;20063;-83
2021/12/18 00:21:01;;;;;;;6.03;1.70;;;7.00;99.90;;;;;;5046678;28;20470;-83
2021/12/18 00:23:27;;;;;;;4.10;1.05;;;7.60;99.90;;;;;;5045833;28;20055;-83
2021/12/18 00:25:53;;;;;;;2.65;0.90;;;7.10;99.90;;;;;;5046173;28;20403;-83
2021/12/18 00:28:19;;;;;;;3.83;0.82;;;7.00;99.90;;;;;;5045401;28;20060;-83
2021/12/18 00:30:45;;;;;;;1.92;0.60;;;7.00;99.90;;;;;;5046495;28;20045;-83
2021/12/18 00:33:11;;;;;;;3.88;0.90;;;7.10;99.90;;;;;;5045426;28;20061;-83
2021/12/18 00:35:37;;;;;;;3.40;0.90;;;7.10;99.90;;;;;;5027675;28;20063;-83
2021/12/18 00:38:05;;;;;;;6.18;0.93;;;7.00;99.90;;;;;;5045716;28;20485;-83
2021/12/18 00:40:44;;;;;;;7.88;0.63;;;7.00;99.90;;;;;;5027090;28;20045;-83
2021/12/18 00:43:24;;;;;;;0.85;0.32;;;8.30;99.90;;;;;;5045412;28;20052;-82
2021/12/18 00:45:50;;;;;;;2.15;0.60;;;7.00;99.90;;;;;;5046105;28;20080;-83
2021/12/18 00:48:16;;;;;;;2.78;0.88;;;7.00;99.90;;;;;;5043828;28;20075;-83
2021/12/18 00:50:42;;;;;;;3.72;0.82;;;7.00;99.90;;;;;;5044983;28;20041;-82
2021/12/18 00:53:08;;;;;;;3.33;0.80;;;7.00;99.90;;;;;;5043411;28;20113;-83
2021/12/18 00:55:36;;;;;;;6.22;0.80;;;7.00;99.90;;;;;;5044997;28;20052;-83
2021/12/18 00:58:02;;;;;;;4.20;0.80;;;7.00;99.90;;;;;;5045261;28;20416;-83
2021/12/18 01:00:28;;;;;;;2.42;0.80;;;6.90;99.90;;;;;;5046020;28;20511;-83
2021/12/18 01:03:01;;;;;;;3.00;0.80;;;8.50;99.90;;;;;;5061336;28;20041;-82
2021/12/18 01:05:30;;;;;;;2.53;0.70;;;6.80;99.90;;;;;;5042921;28;20045;-83
2021/12/18 01:07:57;;;;;;;2.17;0.50;;;6.80;99.90;;;;;;5045020;28;20392;-83
2021/12/18 01:13:13;;;;;;;3.22;0.77;;;6.80;99.90;;;;;;5044176;28;20052;-83
2021/12/18 01:15:46;;;;;;;2.17;0.57;;;6.80;99.90;;;;;;5045340;28;20492;-83
2021/12/18 01:23:40;;;;;;;2.75;0.50;;;6.80;99.90;;;;;;5044526;28;20045;-83
2021/12/18 01:26:06;;;;;;;2.38;0.68;;;6.80;99.90;;;;;;5044367;28;20049;-83
2021/12/18 01:28:32;;;;;;;1.60;0.68;;;7.30;99.90;;;;;;5044410;28;20049;-83
2021/12/18 01:31:00;;;;;;;3.30;0.63;;;6.80;99.90;;;;;;5044793;28;20503;-83
2021/12/18 01:33:25;;;;;;;5.15;0.82;;;7.40;99.90;;;;;;5044636;28;20041;-83
2021/12/18 01:35:53;;;;;;;1.98;0.47;;;6.80;99.90;;;;;;5044030;28;20059;-83
2021/12/18 01:38:21;;;;;;;2.80;0.60;;;6.80;99.90;;;;;;5045446;28;20111;-83
2021/12/18 01:40:47;;;;;;;3.35;0.75;;;6.80;99.90;;;;;;5044459;28;20053;-83
2021/12/18 01:46:46;;;;;;;0.85;0.35;;;6.80;99.90;;;;;;5026160;28;20053;-83
2021/12/18 01:52:17;;;;;;;2.50;0.50;;;7.90;99.90;;;;;;5025710;28;20688;-83
2021/12/18 01:54:45;;;;;;;2.08;0.50;;;6.80;99.90;;;;;;5026952;28;20123;-83
2021/12/18 01:57:11;;;;;;;4.18;0.70;;;6.80;99.90;;;;;;5043787;28;20098;-83
2021/12/18 01:59:47;;;;;;;1.42;0.40;;;6.80;99.90;;;;;;5044760;28;20515;-83
2021/12/18 02:02:14;;;;;;;4.93;0.80;;;6.80;99.90;;;;;;5042799;28;20067;-83
2021/12/18 02:04:40;;;;;;;2.63;0.80;;;6.80;99.90;;;;;;5044817;28;20071;-83
2021/12/18 02:07:07;;;;;;;4.68;1.20;;;7.40;99.90;;;;;;5045021;28;20049;-82
2021/12/18 02:12:26;;;;;;;8.00;1.25;;;7.80;99.90;;;;;;5045118;28;20049;-83
2021/12/18 02:20:23;;;;;;;2.35;0.80;;;6.80;99.90;;;;;;5045200;28;20199;-83
2021/12/18 02:22:51;;;;;;;2.28;0.80;;;6.80;99.90;;;;;;5043230;28;20579;-83
2021/12/18 02:25:19;;;;;;;3.17;0.50;;;6.90;99.90;;;;;;5043393;28;20189;-83
2021/12/18 02:27:48;;;;;;;2.13;0.70;;;6.80;99.90;;;;;;5043548;28;20037;-83
2021/12/18 02:30:13;;;;;;;2.50;0.55;;;8.10;99.90;;;;;;5045003;28;20111;-83
2021/12/18 02:32:39;;;;;;;6.00;0.57;;;6.90;99.90;;;;;;5044633;28;20053;-83
2021/12/18 02:35:05;;;;;;;0.70;0.30;;;6.80;99.90;;;;;;5042782;28;20049;-83
2021/12/18 02:37:38;;;;;;;0.88;0.38;;;6.80;99.90;;;;;;5045320;28;20056;-83
2021/12/18 02:42:52;;;;;;;0.43;0.20;;;6.80;99.90;;;;;;5042992;28;19927;-83
2021/12/18 02:45:18;;;;;;;2.42;0.47;;;8.50;99.90;;;;;;5044019;28;20597;-83
2021/12/18 02:47:47;;;;;;;2.22;0.50;;;7.10;99.90;;;;;;5044019;28;20041;-83
2021/12/18 02:50:13;;;;;;;7.47;0.50;;;8.10;99.90;;;;;;5042835;28;20091;-83
2021/12/18 02:52:39;;;;;;;0.65;0.40;;;6.80;99.90;;;;;;5042856;28;20084;-83
2021/12/18 02:55:05;;;;;;;0.93;0.38;;;6.80;99.90;;;;;;5044441;28;20033;-83
2021/12/18 02:57:31;;;;;;;1.13;0.43;;;6.80;99.90;;;;;;5041843;28;20083;-83
2021/12/18 02:59:58;;;;;;;1.38;0.50;;;6.80;99.90;;;;;;5043856;28;20445;-83
2021/12/18 03:02:25;;;;;;;1.83;0.40;;;6.80;99.90;;;;;;5042489;28;20128;-83
2021/12/18 03:04:56;;;;;;;1.88;0.50;;;6.80;99.90;;;;;;5043512;28;20041;-83
2021/12/18 03:07:24;;;;;;;0.52;0.20;;;6.80;99.90;;;;;;5043838;28;20124;-83
2021/12/18 03:23:28;;;;;;;2.38;0.43;;;6.80;99.90;;;;;;5042594;28;20048;-83
2021/12/18 03:25:41;;;;;;;1.83;0.50;;;6.80;99.90;;;;;;5040533;28;20135;-83
2021/12/18 03:28:08;;;;;;;1.08;0.30;;;6.80;99.90;;;;;;5044759;28;20051;-84
2021/12/18 03:30:35;;;;;;;1.42;0.50;;;6.80;99.90;;;;;;5061776;28;20504;-84
2021/12/18 03:33:01;;;;;;;1.70;0.40;;;7.40;99.90;;;;;;5062865;28;20102;-83
2021/12/18 03:35:27;;;;;;;1.48;0.52;;;8.30;99.90;;;;;;5045969;28;20439;-83
2021/12/18 03:37:54;;;;;;;1.45;0.47;;;6.90;99.90;;;;;;5046845;28;20080;-83
2021/12/18 03:40:24;;;;;;;3.70;0.70;;;8.30;99.90;;;;;;5045836;28;20514;-83
2021/12/18 03:42:50;;;;;;;1.75;0.73;;;6.90;99.90;;;;;;5045656;28;20139;-84
2021/12/18 03:45:17;;;;;;;1.15;0.52;;;6.90;99.90;;;;;;5045820;28;20045;-83
2021/12/18 03:47:44;;;;;;;2.65;0.95;;;8.70;99.90;;;;;;5046926;28;20045;-84
2021/12/18 03:50:10;;;;;;;1.80;0.65;;;6.90;99.90;;;;;;5047633;28;20041;-83
2021/12/18 03:52:36;;;;;;;1.50;0.50;;;6.90;99.90;;;;;;5044458;28;20135;-83
2021/12/18 03:55:03;;;;;;;2.85;0.80;;;7.00;99.90;;;;;;5047926;28;20175;-83
2021/12/18 03:57:29;;;;;;;1.70;0.57;;;6.90;99.90;;;;;;5045067;28;20107;-83
2021/12/18 03:59:55;;;;;;;3.58;0.70;;;6.90;99.90;;;;;;5047244;28;20495;-83
2021/12/18 04:02:21;;;;;;;2.25;0.90;;;8.10;99.90;;;;;;5046441;28;20049;-84
2021/12/18 04:04:46;;;;;;;4.05;0.80;;;7.00;99.90;;;;;;5046775;28;20041;-83
2021/12/18 04:07:12;;;;;;;1.95;0.90;;;7.00;99.90;;;;;;5045658;28;20075;-83
2021/12/18 04:09:38;;;;;;;2.40;0.85;;;7.00;99.90;;;;;;5060933;28;20128;-83
2021/12/18 04:12:04;;;;;;;2.45;0.98;;;7.00;99.90;;;;;;5062348;28;20136;-83
2021/12/18 04:14:30;;;;;;;4.15;1.42;;;7.00;99.90;;;;;;5044132;28;20049;-83
2021/12/18 04:16:56;;;;;;;3.85;1.17;;;7.00;99.90;;;;;;5045469;28;20036;-83
2021/12/18 04:19:22;;;;;;;3.55;1.27;;;7.00;99.90;;;;;;5045344;28;20416;-82
2021/12/18 04:21:48;;;;;;;3.92;1.00;;;7.00;99.90;;;;;;5046586;28;20033;-83
2021/12/18 04:24:14;;;;;;;2.63;1.25;;;8.10;99.90;;;;;;5045281;28;20049;-82
2021/12/18 04:26:40;;;;;;;4.05;1.75;;;7.10;99.90;;;;;;5045268;28;20052;-82
2021/12/18 04:29:06;;;;;;;3.20;1.13;;;7.10;99.90;;;;;;5045375;28;20048;-83
2021/12/18 04:31:34;;;;;;;2.60;1.08;;;7.10;99.90;;;;;;5043738;28;20052;-83
2021/12/18 04:34:00;;;;;;;2.10;1.30;;;7.10;99.90;;;;;;5045090;28;20048;-83
2021/12/18 04:36:26;;;;;;;4.75;1.48;;;7.10;99.90;;;;;;5044833;28;20049;-84
2021/12/18 04:38:52;;;;;;;3.75;1.30;;;7.10;99.90;;;;;;5044740;28;20090;-83
2021/12/18 04:41:23;;;;;;;3.95;1.85;;;7.20;99.90;;;;;;5028168;28;20550;-83
2021/12/18 04:43:50;;;;;;;3.63;1.58;;;7.20;99.90;;;;;;5045953;28;20051;-83
2021/12/18 04:46:16;;;;;;;7.72;2.65;;;7.20;99.90;;;;;;5046731;28;20565;-83
2021/12/18 04:48:42;;;;;;;4.18;1.77;;;7.20;99.90;;;;;;5045572;28;20756;-82
2021/12/18 04:51:07;;;;;;;4.72;2.22;;;7.60;99.90;;;;;;5046370;28;20396;-83
2021/12/18 04:53:33;;;;;;;3.53;1.40;;;7.20;99.90;;;;;;5045720;28;20131;-83
2021/12/18 04:55:59;;;;;;;3.70;1.77;;;7.80;99.90;;;;;;5045537;28;20049;-83
2021/12/18 04:58:24;;;;;;;6.35;1.95;;;7.30;99.90;;;;;;5046245;28;20435;-83
2021/12/18 05:00:50;;;;;;;5.47;2.10;;;7.30;99.90;;;;;;5043458;28;20048;-83
2021/12/18 05:03:17;;;;;;;6.45;1.80;;;7.30;99.90;;;;;;5061420;28;20056;-83
2021/12/18 05:05:44;;;;;;;4.07;1.63;;;7.40;99.90;;;;;;5043149;28;20045;-83
2021/12/18 05:08:10;;;;;;;4.22;1.83;;;7.30;99.90;;;;;;5044596;28;20041;-83
2021/12/18 05:10:36;;;;;;;8.82;2.30;;;7.60;99.90;;;;;;5045473;28;20044;-83
2021/12/18 05:13:02;;;;;;;6.90;2.05;;;7.30;99.90;;;;;;5043917;28;20041;-83
2021/12/18 05:15:28;;;;;;;8.95;2.20;;;7.40;99.90;;;;;;5044580;28;20043;-83
2021/12/18 05:17:54;;;;;;;5.10;1.58;;;7.90;99.90;;;;;;5044436;28;20176;-83
2021/12/18 05:20:19;;;;;;;5.00;2.05;;;7.40;99.90;;;;;;5044527;28;20053;-83
2021/12/18 05:22:45;;;;;;;4.13;1.75;;;7.40;99.90;;;;;;5044501;28;20068;-82
2021/12/18 05:25:11;;;;;;;9.82;2.58;;;7.40;99.90;;;;;;5046265;28;20037;-82
2021/12/18 05:27:37;;;;;;;4.45;1.45;;;7.50;99.90;;;;;;5044756;28;20377;-83
2021/12/18 05:30:08;;;;;;;5.38;2.38;;;7.50;99.90;;;;;;5044028;28;20045;-83
2021/12/18 05:32:34;;;;;;;6.68;2.30;;;7.50;99.90;;;;;;5045801;28;20041;-83
2021/12/18 05:35:00;;;;;;;6.65;1.92;;;7.50;99.90;;;;;;5043612;28;20687;-82
2021/12/18 05:39:52;;;;;;;11.82;3.13;;;7.50;99.90;;;;;;5059043;28;20045;-82
2021/12/18 05:42:18;;;;;;;4.97;2.13;;;7.60;99.90;;;;;;5045085;28;20037;-82
2021/12/18 05:44:44;;;;;;;6.45;2.28;;;7.90;99.90;;;;;;5042884;28;20056;-82
2021/12/18 05:47:11;;;;;;;7.55;2.00;;;7.60;99.90;;;;;;5043691;28;20146;-82
2021/12/18 05:49:37;;;;;;;15.35;2.92;;;8.80;99.90;;;;;;5043530;28;20088;-82
2021/12/18 05:52:05;;;;;;;8.63;2.22;;;8.40;99.90;;;;;;5043867;28;20072;-82
2021/12/18 05:54:34;;;;;;;8.70;1.92;;;7.70;99.90;;;;;;5043547;28;20501;-83
2021/12/18 05:57:04;;;;;;;3.45;1.45;;;9.30;99.90;;;;;;5041976;28;20044;-83
2021/12/18 05:59:30;;;;;;;4.78;1.85;;;7.60;99.90;;;;;;5043440;28;20566;-82
2021/12/18 06:01:56;;;;;;;4.38;1.95;;;7.70;99.90;;;;;;5044333;28;20080;-83
2021/12/18 06:04:22;;;;;;;5.05;2.08;;;9.80;99.90;;;;;;5059894;28;20661;-83
2021/12/18 06:06:47;;;;;;;3.17;1.83;;;7.70;99.90;;;;;;5043321;28;20051;-83
2021/12/18 06:09:13;;;;;;;9.85;2.50;;;7.70;99.90;;;;;;5044168;28;20048;-83
2021/12/18 06:11:40;;;;;;;10.27;2.60;;;7.80;99.90;;;;;;5043576;28;20124;-83
2021/12/18 06:14:06;;;;;;;4.53;2.17;;;7.80;99.90;;;;;;5043512;28;20053;-83
2021/12/18 06:16:32;;;;;;;7.90;2.10;;;7.80;99.90;;;;;;5043570;28;20052;-83
2021/12/18 06:18:58;;;;;;;8.90;3.15;;;7.80;99.90;;;;;;5043974;28;20049;-83
2021/12/18 06:21:23;;;;;;;8.82;2.45;;;7.50;99.90;;;;;;5044500;28;20041;-82
2021/12/18 06:23:51;;;;;;;6.32;2.22;;;9.50;99.90;;;;;;5060022;28;20041;-82
2021/12/18 06:26:19;;;;;;;5.55;2.28;;;7.80;99.90;;;;;;5044074;28;20483;-82
2021/12/18 06:28:45;;;;;;;8.10;1.90;;;9.30;99.90;;;;;;5044871;28;20119;-83
2021/12/18 06:31:11;;;;;;;7.85;2.10;;;7.90;99.90;;;;;;5043080;28;20068;-83
2021/12/18 06:33:36;;;;;;;7.43;2.65;;;7.90;99.90;;;;;;5026666;28;20099;-83
2021/12/18 06:36:03;;;;;;;8.98;2.35;;;7.90;99.90;;;;;;5042070;28;20576;-81
2021/12/18 06:38:29;;;;;;;13.23;2.22;;;7.90;99.90;;;;;;5042891;28;20052;-83
2021/12/18 06:40:55;;;;;;;9.20;2.00;;;7.90;99.90;;;;;;5044331;28;20477;-82
2021/12/18 06:43:21;;;;;;;7.78;2.00;;;9.70;99.90;;;;;;5043325;28;20041;-84
2021/12/18 06:45:46;;;;;;;7.47;1.85;;;7.90;99.90;;;;;;5043602;28;20051;-84
2021/12/18 06:48:12;;;;;;;5.30;1.85;;;7.90;99.90;;;;;;5043205;28;20051;-84
2021/12/18 06:50:38;;;;;;;7.93;2.58;;;8.20;99.90;;;;;;5044409;28;20083;-84
2021/12/18 06:53:05;;;;;;;5.53;1.63;;;7.90;99.90;;;;;;5043897;28;20045;-85
2021/12/18 06:55:31;;;;;;;14.48;1.52;;;8.50;99.90;;;;;;5059946;28;20385;-83
2021/12/18 06:57:57;;;;;;;6.25;1.63;;;8.00;99.90;;;;;;5059460;28;20044;-84
2021/12/18 07:00:24;;;;;;;5.63;1.52;;;8.50;99.90;;;;;;5025250;28;20565;-84
2021/12/18 07:02:51;;;;;;;8.50;1.17;;;8.00;99.90;;;;;;5044893;28;20036;-84
2021/12/18 07:05:17;;;;;;;5.18;1.75;;;8.00;99.90;;;;;;5028578;28;20040;-84
2021/12/18 07:07:43;;;;;;;3.75;1.27;;;8.10;99.90;;;;;;5047071;28;20091;-84
2021/12/18 07:10:12;;;;;;;5.75;1.23;;;8.00;99.90;;;;;;5062958;28;20467;-84
2021/12/18 07:12:37;;;;;;;1.67;1.05;;;8.10;99.90;;;;;;5047666;28;20045;-84
2021/12/18 07:15:05;;;;;;;2.88;0.95;;;8.30;99.90;;;;;;5047994;28;20037;-84
2021/12/18 07:17:31;;;;;;;5.18;1.58;;;8.10;99.90;;;;;;5046113;28;20396;-84
2021/12/18 07:19:56;;;;;;;7.40;1.27;;;8.10;99.90;;;;;;5048278;28;20037;-84
2021/12/18 07:22:22;;;;;;;8.10;1.08;;;8.10;99.90;;;;;;5046570;28;20076;-84
2021/12/18 07:24:48;;;;;;;6.93;1.27;;;8.10;99.90;;;;;;5048255;28;20045;-84
2021/12/18 07:27:14;;;;;;;10.35;1.27;;;8.10;99.90;;;;;;5045564;28;20048;-82
2021/12/18 07:29:39;;;;;;;10.50;1.80;;;8.90;99.90;;;;;;5046387;28;20091;-82
2021/12/18 07:32:05;;;;;;;4.70;1.23;;;8.20;99.90;;;;;;5046027;28;20044;-82
2021/12/18 07:34:32;;;;;;;5.50;0.98;;;8.10;99.90;;;;;;5045477;28;20127;-82
2021/12/18 07:36:57;;;;;;;6.65;1.30;;;9.30;99.90;;;;;;5047908;28;20037;-82
2021/12/18 07:39:23;;;;;;;4.82;1.13;;;8.40;99.90;;;;;;5045088;28;20391;-82
2021/12/18 07:41:49;;;;;;;11.82;1.67;;;8.20;99.90;;;;;;5048081;28;20057;-82
2021/12/18 07:44:15;;;;;;;5.00;1.60;;;8.20;99.90;;;;;;5046459;28;20106;-84
2021/12/18 07:46:40;;;;;;;5.90;1.92;;;8.60;99.90;;;;;;5047419;28;20048;-84
2021/12/18 07:49:08;;;;;;;9.65;2.03;;;8.20;99.90;;;;;;5045946;28;20152;-84
2021/12/18 07:51:35;;;;;;;3.67;1.73;;;9.30;99.90;;;;;;5046878;28;20138;-83
2021/12/18 07:54:02;;;;;;;3.75;1.75;;;8.20;99.90;;;;;;5046315;28;20044;-84
2021/12/18 07:56:27;;;;;;;10.20;1.77;;;8.30;99.90;;;;;;5046014;28;20047;-84
2021/12/18 07:58:53;;;;;;;5.90;1.80;;;8.30;99.90;;;;;;5047666;28;20404;-83
2021/12/18 08:01:19;;;;;;;5.72;1.88;;;8.30;99.90;;;;;;5046176;28;20055;-83
2021/12/18 08:03:45;;;;;;;11.95;2.55;;;8.30;99.90;;;;;;5045589;28;20041;-83
2021/12/18 08:06:11;;;;;;;2.95;1.52;;;8.70;99.90;;;;;;5046957;28;20704;-83
2021/12/18 08:08:36;;;;;;;4.63;1.50;;;8.30;99.90;;;;;;5046719;28;20112;-83
2021/12/18 08:11:03;;;;;;;7.22;1.13;;;8.30;99.90;;;;;;5047569;28;20033;-83
2021/12/18 08:13:28;;;;;;;3.85;1.65;;;9.40;99.90;;;;;;5044145;28;20045;-83
2021/12/18 08:15:54;;;;;;;6.80;0.98;;;8.70;99.90;;;;;;5046143;28;20047;-82
2021/12/18 08:18:20;;;;;;;4.93;0.98;;;9.10;99.90;;;;;;5045718;28;20056;-83
2021/12/18 08:20:46;;;;;;;2.55;0.82;;;8.40;99.90;;;;;;5045347;28;20051;-84
2021/12/18 08:23:12;;;;;;;4.07;0.70;;;8.50;99.90;;;;;;5046610;28;20048;-82
2021/12/18 08:25:38;;;;;;;4.07;1.20;;;8.30;99.90;;;;;;5045238;28;20388;-82
2021/12/18 08:28:04;;;;;;;3.65;0.85;;;8.40;99.90;;;;;;5047085;28;20041;-86
2021/12/18 08:30:33;;;;;;;3.90;0.80;;;8.40;99.90;;;;;;5043937;28;20084;-86
2021/12/18 08:32:59;;;;;;;2.95;1.02;;;8.40;99.90;;;;;;5045127;28;20098;-83
2021/12/18 08:35:27;;;;;;;1.95;0.75;;;8.50;99.90;;;;;;5045306;28;20130;-83
2021/12/18 08:37:53;;;;;;;3.42;0.98;;;8.40;99.90;;;;;;5028700;28;20059;-82
2021/12/18 08:40:20;;;;;;;1.90;0.55;;;8.40;99.90;;;;;;5045726;28;20061;-84
2021/12/18 08:42:46;;;;;;;4.30;1.00;;;8.40;99.90;;;;;;5044830;28;20475;-83
2021/12/18 08:45:12;;;;;;;7.75;1.33;;;8.40;99.90;;;;;;5046828;28;20041;-82
2021/12/18 08:47:39;;;;;;;4.32;0.75;;;9.50;99.90;;;;;;5045199;28;20048;-83
2021/12/18 08:50:09;;;;;;;1.13;0.65;;;8.40;99.90;;;;;;5046820;28;20076;-86
2021/12/18 08:52:34;;;;;;;2.53;1.10;;;8.50;99.90;;;;;;5028503;28;20044;-84
2021/12/18 08:55:00;;;;;;;3.78;0.80;;;9.20;99.90;;;;;;5046729;28;20045;-82
2021/12/18 08:57:27;;;;;;;3.40;1.17;;;8.50;99.90;;;;;;5027847;28;20110;-85
2021/12/18 08:59:53;;;;;;;3.67;0.88;;;8.50;99.90;;;;;;5044327;28;20041;-84
2021/12/18 09:02:20;;;;;;;4.40;0.73;;;8.50;99.90;;;;;;5047159;28;20159;-85
2021/12/18 09:04:47;;;;;;;6.13;0.93;;;8.50;99.90;;;;;;5044997;28;20455;-83
2021/12/18 09:07:13;;;;;;;4.43;1.15;;;8.50;99.90;;;;;;5046051;28;20102;-84
2021/12/18 09:09:39;;;;;;;4.68;0.80;;;8.60;99.90;;;;;;5044629;28;20389;-84
2021/12/18 09:12:06;;;;;;;6.53;1.25;;;10.20;99.90;;;;;;5044346;28;20045;-84
2021/12/18 09:14:32;;;;;;;3.53;1.13;;;8.60;99.90;;;;;;5045072;28;20133;-85
2021/12/18 09:16:58;;;;;;;6.47;1.17;;;8.60;99.90;;;;;;5027071;28;20083;-86
2021/12/18 09:19:24;;;;;;;6.07;1.67;;;8.60;99.90;;;;;;5045937;28;20056;-83
2021/12/18 09:21:49;;;;;;;7.75;1.00;;;8.60;99.90;;;;;;5044038;28;20037;-83
2021/12/18 09:24:15;;;;;;;14.07;1.55;;;10.00;99.90;;;;;;5045587;28;20049;-84
2021/12/18 09:26:41;;;;;;;7.15;1.30;;;8.60;99.90;;;;;;5042306;28;20142;-82
2021/12/18 09:29:07;;;;;;;6.00;1.33;;;8.60;99.90;;;;;;5043740;28;20076;-83
2021/12/18 09:31:33;;;;;;;4.70;1.42;;;9.20;99.90;;;;;;5043161;28;20048;-83
2021/12/18 09:33:58;;;;;;;5.55;1.38;;;8.60;99.90;;;;;;5059935;28;20045;-83
2021/12/18 09:36:24;;;;;;;8.00;2.83;;;8.70;99.90;;;;;;5045494;28;20047;-83
2021/12/18 09:38:50;;;;;;;5.80;1.92;;;8.70;99.90;;;;;;5044052;28;20060;-83
2021/12/18 09:41:16;;;;;;;6.00;1.83;;;8.70;99.90;;;;;;5045455;28;20724;-82
2021/12/18 09:43:42;;;;;;;7.10;1.88;;;8.70;99.90;;;;;;5043756;28;20088;-81
2021/12/18 09:46:12;;;;;;;6.22;2.47;;;8.70;99.90;;;;;;5045115;28;20045;-81
2021/12/18 09:48:39;;;;;;;7.60;1.98;;;8.70;99.90;;;;;;5044442;28;20123;-80
2021/12/18 09:51:11;;;;;;;5.40;2.30;;;8.70;99.90;;;;;;5044728;28;20045;-80
2021/12/18 09:53:37;;;;;;;6.97;2.30;;;9.00;99.90;;;;;;5044885;28;20182;-80
2021/12/18 09:56:04;;;;;;;9.23;2.50;;;9.70;99.90;;;;;;5043870;28;20057;-81
2021/12/18 09:58:30;;;;;;;6.65;2.00;;;8.70;99.90;;;;;;5044764;28;20530;-80
2021/12/18 10:00:56;;;;;;;7.00;1.85;;;8.70;99.90;;;;;;5043907;28;20049;-79
2021/12/18 10:03:38;;;;;;;5.38;1.75;;;9.90;99.90;;;;;;5044837;28;20086;-80
2021/12/18 10:06:41;;;;;;;8.77;2.10;;;8.80;99.90;;;;;;5059880;28;20040;-80
2021/12/18 10:09:12;;;;;;;4.45;1.23;;;8.80;99.90;;;;;;5041911;28;20048;-80
2021/12/18 10:12:24;;;;;;;6.07;1.75;;;8.80;99.90;;;;;;5044842;28;20045;-82
2021/12/18 10:14:57;;;;;;;4.60;2.08;;;8.80;99.90;;;;;;5044378;28;20041;-80
2021/12/18 10:17:31;;;;;;;3.55;1.50;;;8.80;99.90;;;;;;5042069;28;20504;-80
2021/12/18 10:20:09;;;;;;;5.22;1.48;;;8.80;99.90;;;;;;5044890;28;20049;-79
2021/12/18 10:22:36;;;;;;;6.03;1.35;;;7.30;99.90;;;;;;5043882;28;20052;-82
2021/12/18 10:25:07;;;;;;;6.07;1.92;;;8.80;99.90;;;;;;5043020;28;20055;-82
2021/12/18 10:27:33;;;;;;;8.82;2.20;;;8.90;99.90;;;;;;5044353;28;20118;-81
2021/12/18 10:30:16;;;;;;;4.80;1.83;;;10.40;99.90;;;;;;5043787;28;20036;-80
2021/12/18 10:33:17;;;;;;;;;;;8.90;99.90;;;;;;5045470;28;20071;-81
2021/12/18 10:35:51;;;;;;;6.65;1.80;;;8.90;99.90;;;;;;5021306;28;19968;-81
2021/12/18 10:38:45;;;;;;;8.63;2.03;;;9.60;99.90;;;;;;5039457;28;20122;-80
2021/12/18 10:41:27;;;;;;;12.90;2.47;;;8.90;99.90;;;;;;5044726;28;20416;-83
2021/12/18 10:43:57;;;;;;;9.52;2.17;;;8.90;99.90;;;;;;5043584;28;20045;-82
2021/12/18 10:46:24;;;;;;;10.05;1.85;;;8.90;99.90;;;;;;5042299;28;20186;-81
2021/12/18 10:48:56;;;;;;;7.95;1.40;;;9.80;99.90;;;;;;5043978;28;20037;-82
2021/12/18 10:51:23;;;;;;;7.15;2.30;;;9.00;99.90;;;;;;5043140;28;20178;-82
2021/12/18 10:53:50;;;;;;;6.32;1.52;;;9.00;99.90;;;;;;5044092;28;20472;-82
2021/12/18 10:56:16;;;;;;;3.58;1.30;;;9.00;99.90;;;;;;5042883;28;20041;-79
2021/12/18 10:58:41;;;;;;;3.45;1.00;;;9.00;99.90;;;;;;5042486;28;20153;-81
2021/12/18 11:01:14;;;;;;;8.98;1.10;;;9.00;99.90;;;;;;5042137;28;20049;-79
2021/12/18 11:03:49;;;;;;;2.35;0.60;;;9.10;99.90;;;;;;5043606;28;20052;-80
2021/12/18 11:06:19;;;;;;;6.82;1.25;;;9.10;99.90;;;;;;5058590;28;20044;-80
2021/12/18 11:09:07;;;;;;;5.32;1.17;;;9.10;99.90;;;;;;5042612;28;20057;-80
2021/12/18 11:14:20;;;;;;;3.03;0.80;;;7.90;99.90;;;;;;5043834;28;20401;-78
2021/12/18 11:16:58;;;;;;;4.55;1.45;;;9.10;99.90;;;;;;5042113;28;20049;-82
2021/12/18 11:19:27;;;;;;;7.05;1.20;;;9.10;99.90;;;;;;5042500;28;20127;-81
2021/12/18 11:22:04;;;;;;;3.50;1.20;;;9.10;99.90;;;;;;5041432;28;20459;-82
2021/12/18 11:24:35;;;;;;;1.73;0.70;;;10.10;99.90;;;;;;5043852;28;20049;-79
2021/12/18 11:27:03;;;;;;;3.53;0.88;;;9.20;99.90;;;;;;5043409;28;20439;-79
2021/12/18 11:29:46;;;;;;;6.25;1.00;;;9.20;99.90;;;;;;5043418;28;20045;-79
2021/12/18 11:32:14;;;;;;;;;;;9.40;99.90;;;;;;5044392;28;20488;-79
2021/12/18 11:34:40;;;;;;;8.07;0.95;;;9.30;99.90;;;;;;5042847;28;19925;-79
2021/12/18 11:37:09;;;;;;;6.25;1.00;;;9.30;99.90;;;;;;5043199;28;20177;-78
2021/12/18 11:39:37;;;;;;;10.70;1.77;;;9.30;99.90;;;;;;5042642;28;20061;-79
2021/12/18 11:42:04;;;;;;;4.90;1.27;;;9.30;99.90;;;;;;5041803;28;20045;-80
2021/12/18 11:44:40;;;;;;;5.57;2.13;;;9.30;99.90;;;;;;5042987;28;20132;-79
2021/12/18 11:47:28;;;;;;;7.80;1.83;;;9.30;99.90;;;;;;5042842;28;20158;-79
2021/12/18 11:50:00;;;;;;;3.95;1.30;;;9.30;99.90;;;;;;5044681;28;20077;-79
2021/12/18 11:52:26;;;;;;;5.82;1.08;;;9.40;99.90;;;;;;5046504;28;20117;-79
2021/12/18 11:54:55;;;;;;;5.32;1.00;;;9.70;99.90;;;;;;5045350;28;20616;-79
2021/12/18 11:57:40;;;;;;;11.65;1.60;;;9.40;99.90;;;;;;5028876;28;20483;-79
2021/12/18 12:00:35;;;;;;;3.42;1.00;;;9.40;99.90;;;;;;5046361;28;20048;-79
2021/12/18 12:03:02;;;;;;;4.97;1.08;;;9.40;99.90;;;;;;5045378;28;20048;-78
2021/12/18 12:05:48;;;;;;;3.75;1.13;;;9.40;99.90;;;;;;5045558;28;20059;-79
2021/12/18 12:08:21;;;;;;;3.70;1.20;;;9.30;99.90;;;;;;5044796;28;20496;-78
2021/12/18 12:11:16;;;;;;;4.65;1.25;;;9.30;99.90;;;;;;5045605;28;20555;-78
2021/12/18 12:14:14;;;;;;;6.15;1.38;;;9.30;99.90;;;;;;5044673;28;20057;-79
2021/12/18 12:16:44;;;;;;;10.02;1.35;;;9.40;99.90;;;;;;5045120;28;20068;-78
2021/12/18 12:19:20;;;;;;;5.93;1.55;;;9.30;99.90;;;;;;5046678;28;20056;-79
2021/12/18 12:21:50;;;;;;;7.85;1.40;;;9.30;99.90;;;;;;5045461;28;20527;-79
2021/12/18 12:24:21;;;;;;;10.38;1.75;;;9.30;99.90;;;;;;5046982;28;20045;-79
2021/12/18 12:26:48;;;;;;;6.63;1.23;;;9.30;99.90;;;;;;5046367;28;20116;-78
2021/12/18 12:29:16;;;;;;;5.97;1.30;;;9.30;99.90;;;;;;5046364;28;20105;-79
2021/12/18 12:32:07;;;;;;;8.43;2.15;;;9.30;99.90;;;;;;5061578;28;20052;-78
2021/12/18 12:34:37;;;;;;;4.50;1.65;;;9.30;99.90;;;;;;5043770;28;20484;-80
2021/12/18 12:37:27;;;;;;;5.40;1.40;;;10.70;99.90;;;;;;5046925;28;20577;-79
2021/12/18 12:39:54;;;;;;;7.78;1.70;;;9.30;99.90;;;;;;5046028;28;20047;-79
2021/12/18 12:42:20;;;;;;;9.82;1.13;;;9.30;99.90;;;;;;5046177;28;20581;-78
2021/12/18 12:45:01;;;;;;;10.13;2.20;;;9.30;99.90;;;;;;5028264;28;20041;-79
2021/12/18 12:47:30;;;;;;;2.40;1.15;;;9.30;99.90;;;;;;5027064;28;20049;-78
2021/12/18 12:50:21;;;;;;;9.88;1.60;;;9.30;99.90;;;;;;5045364;28;20063;-79
2021/12/18 12:52:55;;;;;;;6.03;1.50;;;9.30;99.90;;;;;;5043988;28;20072;-79
2021/12/18 12:55:24;;;;;;;6.70;1.52;;;9.30;99.90;;;;;;5027134;28;20139;-79
2021/12/18 12:57:56;;;;;;;6.25;1.88;;;9.40;99.90;;;;;;5046171;28;20416;-79
2021/12/18 13:00:21;;;;;;;4.70;1.40;;;9.20;99.90;;;;;;5043172;28;20044;-81
2021/12/18 13:03:12;;;;;;;7.45;1.70;;;9.20;99.90;;;;;;5044520;28;20048;-83
2021/12/18 13:06:08;;;;;;;8.30;1.60;;;9.20;99.90;;;;;;5044277;28;20602;-80
2021/12/18 13:08:39;;;;;;;9.10;1.83;;;9.20;99.90;;;;;;5044794;28;20567;-79
2021/12/18 13:11:06;;;;;;;6.18;1.60;;;10.70;99.90;;;;;;5046221;28;20537;-79
2021/12/18 13:13:34;;;;;;;5.93;1.55;;;9.60;99.90;;;;;;5043239;28;20045;-79
2021/12/18 13:16:13;;;;;;;5.28;1.65;;;9.10;99.90;;;;;;5044250;28;20037;-79
2021/12/18 13:18:47;;;;;;;7.72;1.35;;;9.10;99.90;;;;;;5046134;28;20043;-79
2021/12/18 13:21:16;;;;;;;2.95;1.27;;;9.10;99.90;;;;;;5061028;28;20045;-80
2021/12/18 13:23:52;;;;;;;4.97;1.20;;;9.10;99.90;;;;;;5046378;28;20124;-79
2021/12/18 13:26:27;;;;;;;7.55;1.63;;;9.10;99.90;;;;;;5043548;28;20041;-79
2021/12/18 13:29:12;;;;;;;4.75;1.42;;;9.20;99.90;;;;;;5045499;28;20041;-79
2021/12/18 13:31:50;;;;;;;8.15;1.35;;;9.10;99.90;;;;;;5045816;28;20466;-80
2021/12/18 13:34:25;;;;;;;8.38;1.55;;;9.80;99.90;;;;;;5042717;28;20524;-79
2021/12/18 13:37:04;;;;;;;9.27;1.38;;;9.10;99.90;;;;;;5045861;28;20051;-79
2021/12/18 13:39:40;;;;;;;4.88;1.33;;;9.10;99.90;;;;;;5044448;28;20123;-80
2021/12/18 13:42:13;;;;;;;5.65;1.58;;;9.10;99.90;;;;;;5044979;28;20053;-79
2021/12/18 13:44:59;;;;;;;7.10;1.65;;;9.10;99.90;;;;;;5044026;28;20053;-79
2021/12/18 13:47:48;;;;;;;6.70;1.27;;;9.10;99.90;;;;;;5044111;28;20131;-80
2021/12/18 13:50:18;;;;;;;6.18;1.15;;;9.00;99.90;;;;;;5043535;28;20094;-79
2021/12/18 13:52:48;;;;;;;5.50;1.20;;;9.00;99.90;;;;;;5044848;28;20041;-79